Time;durP1;ratioP1;P1;durP2;ratioP2;P2;SDS_P1;SDS_P2;PMS_P1;PMS_P2;Temp;Humidity;BMP_temperature;BMP_pressure;BME280_temperature;BME280_humidity;BME280_pressure;Samples;Min_cycle;Max_cycle;Signal;HPM_P1;HPM_P2
2023/07/10 00:01:14;;;;;;;;;;;;;;;-147.27;100.00;65176.34;5086563;28;19956;-55
2023/07/10 00:03:40;;;;;;;;;;;;;;;-147.27;100.00;65176.34;5080610;28;19920;-56
2023/07/10 00:06:08;;;;;;;;;;;;;;;-147.27;100.00;65176.34;5074731;28;19924;-55
2023/07/10 00:08:33;;;;;;;;;;;;;;;-147.27;100.00;65176.34;5074912;28;19970;-51
2023/07/10 00:11:00;;;;;;;;;;;;;;;-147.27;100.00;65176.34;5083672;28;19913;-51
2023/07/10 00:13:25;;;;;;;;;;;;;;;-147.27;100.00;65176.34;5074571;28;19924;-55
2023/07/10 00:15:52;;;;;;;;;;;;;;;-147.27;100.00;65176.34;5076491;28;19917;-55
2023/07/10 00:18:18;;;;;;;;;;;;;;;-147.27;100.00;65176.34;5074523;28;19944;-55
2023/07/10 00:20:47;;;;;;;;;;;;;;;-147.27;100.00;65176.34;5079468;28;19960;-58
2023/07/10 00:23:13;;;;;;;;;;;;;;;-147.27;100.00;65176.34;5074582;28;19940;-55
2023/07/10 00:25:39;;;;;;;;;;;;;;;-147.27;100.00;65176.34;5081364;28;19912;-58
2023/07/10 00:28:13;;;;;;;;;;;;;;;-147.27;100.00;65176.34;5085165;28;19959;-55
2023/07/10 00:30:38;;;;;;;;;;;;;;;-147.27;100.00;65176.34;5069931;28;19917;-56
2023/07/10 00:33:06;;;;;;;;;;;;;;;-147.27;100.00;65176.34;5078291;28;20001;-55
2023/07/10 00:35:32;;;;;;;;;;;;;;;-147.27;100.00;65176.34;5065063;28;19924;-54
2023/07/10 00:38:02;;;;;;;;;;;;;;;-147.27;100.00;65176.34;5094102;28;19925;-52
2023/07/10 00:40:30;;;;;;;;;;;;;;;-147.27;100.00;65176.34;5059374;28;19925;-56
2023/07/10 00:43:00;;;;;;;;;;;;;;;-147.27;100.00;65176.34;5084058;28;19916;-54
2023/07/10 00:45:26;;;;;;;;;;;;;;;-147.27;100.00;65176.34;5079278;28;19955;-56
2023/07/10 00:48:03;;;;;;;;;;;;;;;-147.27;100.00;65176.34;5064373;28;19924;-56
2023/07/10 00:50:35;;;;;;;;;;;;;;;-147.27;100.00;65176.34;5066861;28;19912;-54
2023/07/10 00:53:01;;;;;;;;;;;;;;;-147.27;100.00;65176.34;5061899;28;19925;-56
2023/07/10 00:55:33;;;;;;;;;;;;;;;-147.27;100.00;65176.34;5060680;28;19928;-53
2023/07/10 00:58:05;;;;;;;;;;;;;;;-147.27;100.00;65176.34;5077758;28;19948;-56
2023/07/10 01:00:33;;;;;;;;;;;;;;;-147.27;100.00;65176.34;5093437;28;19925;-56
2023/07/10 01:03:00;;;;;;;;;;;;;;;-147.27;100.00;65176.34;5067260;28;20050;-56
2023/07/10 01:05:27;;;;;;;;;;;;;;;-147.27;100.00;65176.34;5066041;28;19920;-55
2023/07/10 01:07:56;;;;;;;;;;;;;;;-147.27;100.00;65176.34;5064075;28;19940;-55
2023/07/10 01:10:22;;;;;;;;;;;;;;;-147.27;100.00;65176.34;5079713;28;19923;-56
2023/07/10 01:12:47;;;;;;;;;;;;;;;-147.27;100.00;65176.34;5077580;28;19920;-54
2023/07/10 01:15:17;;;;;;;;;;;;;;;-147.27;100.00;65176.34;5077271;28;19916;-56
2023/07/10 01:17:43;;;;;;;;;;;;;;;-147.27;100.00;65176.34;5077526;28;19917;-52
2023/07/10 01:20:14;;;;;;;;;;;;;;;-147.27;100.00;65176.34;5077748;28;19921;-54
2023/07/10 01:22:40;;;;;;;;;;;;;;;-147.27;100.00;65176.34;5077356;28;19926;-54
2023/07/10 01:25:05;;;;;;;;;;;;;;;-147.27;100.00;65176.34;5077367;28;19916;-55
2023/07/10 01:27:31;;;;;;;;;;;;;;;-147.27;100.00;65176.34;5093245;28;19924;-53
2023/07/10 01:30:02;;;;;;;;;;;;;;;-147.27;100.00;65176.34;5071288;28;20000;-51
2023/07/10 01:32:27;;;;;;;;;;;;;;;-147.27;100.00;65176.34;5087522;28;19921;-51
2023/07/10 01:34:56;;;;;;;;;;;;;;;-147.27;100.00;65176.34;5076987;28;19916;-51
2023/07/10 01:37:22;;;;;;;;;;;;;;;-147.27;100.00;65176.34;5079537;28;19917;-51
2023/07/10 01:39:49;;;;;;;;;;;;;;;-147.27;100.00;65176.34;5076800;28;19929;-51
2023/07/10 01:42:14;;;;;;;;;;;;;;;-147.27;100.00;65176.34;5066339;28;19935;-54
2023/07/10 01:44:41;;;;;;;;;;;;;;;-147.27;100.00;65176.34;5059943;28;19925;-55
2023/07/10 01:47:08;;;;;;;;;;;;;;;-147.27;100.00;65176.34;5092740;28;19927;-52
2023/07/10 01:49:33;;;;;;;;;;;;;;;-147.27;100.00;65176.34;5059020;28;19944;-52
2023/07/10 01:52:00;;;;;;;;;;;;;;;-147.27;100.00;65176.34;5059380;28;19913;-53
2023/07/10 01:54:25;;;;;;;;;;;;;;;-147.27;100.00;65176.34;5076884;28;19916;-55
2023/07/10 01:56:51;;;;;;;;;;;;;;;-147.27;100.00;65176.34;5083755;28;19922;-55
2023/07/10 01:59:17;;;;;;;;;;;;;;;-147.27;100.00;65176.34;5061785;28;19947;-56
2023/07/10 02:01:43;;;;;;;;;;;;;;;-147.27;100.00;65176.34;5059219;28;19976;-56
2023/07/10 02:04:08;;;;;;;;;;;;;;;-147.27;100.00;65176.34;5076428;28;19948;-54
2023/07/10 02:06:35;;;;;;;;;;;;;;;-147.27;100.00;65176.34;5080512;28;19976;-56
2023/07/10 02:09:01;;;;;;;;;;;;;;;-147.27;100.00;65176.34;5062151;28;19917;-54
2023/07/10 02:11:26;;;;;;;;;;;;;;;-147.27;100.00;65176.34;5076423;28;19924;-50
2023/07/10 02:13:52;;;;;;;;;;;;;;;-147.27;100.00;65176.34;5081712;28;19917;-51
2023/07/10 02:16:17;;;;;;;;;;;;;;;-147.27;100.00;65176.34;5076384;28;19908;-54
2023/07/10 02:18:42;;;;;;;;;;;;;;;-147.27;100.00;65176.34;5092226;28;19916;-56
2023/07/10 02:21:08;;;;;;;;;;;;;;;-147.27;100.00;65176.34;5075574;28;19939;-54
2023/07/10 02:23:36;;;;;;;;;;;;;;;-147.27;100.00;65176.34;5076288;28;19940;-52
2023/07/10 02:26:02;;;;;;;;;;;;;;;-147.27;100.00;65176.34;5076281;28;19989;-57
2023/07/10 02:28:27;;;;;;;;;;;;;;;-147.27;100.00;65176.34;5078006;28;19928;-55
2023/07/10 02:30:53;;;;;;;;;;;;;;;-147.27;100.00;65176.34;5092040;28;19916;-54
2023/07/10 02:33:19;;;;;;;;;;;;;;;-147.27;100.00;65176.34;5075738;28;19952;-55
2023/07/10 02:35:45;;;;;;;;;;;;;;;-147.27;100.00;65176.34;5076007;28;19917;-55
2023/07/10 02:38:11;;;;;;;;;;;;;;;-147.27;100.00;65176.34;5070533;28;19966;-55
2023/07/10 02:40:36;;;;;;;;;;;;;;;-147.27;100.00;65176.34;5058463;28;19921;-54
2023/07/10 02:43:02;;;;;;;;;;;;;;;-147.27;100.00;65176.34;5058126;28;19987;-56
2023/07/10 02:45:27;;;;;;;;;;;;;;;-147.27;100.00;65176.34;5075839;28;19924;-54
2023/07/10 02:47:53;;;;;;;;;;;;;;;-147.27;100.00;65176.34;5100377;28;19917;-56
2023/07/10 02:50:18;;;;;;;;;;;;;;;-147.27;100.00;65176.34;5075560;28;19921;-55
2023/07/10 02:52:44;;;;;;;;;;;;;;;-147.27;100.00;65176.34;5058390;28;19917;-53
2023/07/10 02:55:09;;;;;;;;;;;;;;;-147.27;100.00;65176.34;5063926;28;19967;-55
2023/07/10 02:57:35;;;;;;;;;;;;;;;-147.27;100.00;65176.34;5075899;28;19924;-51
2023/07/10 03:00:03;;;;;;;;;;;;;;;-147.27;100.00;65176.34;5058044;28;19924;-54
2023/07/10 03:02:28;;;;;;;;;;;;;;;-147.27;100.00;65176.34;5075226;28;19925;-53
2023/07/10 03:04:54;;;;;;;;;;;;;;;-147.27;100.00;65176.34;5094564;28;19980;-49
2023/07/10 03:07:19;;;;;;;;;;;;;;;-147.27;100.00;65176.34;5077556;28;19916;-51
2023/07/10 03:09:45;;;;;;;;;;;;;;;-147.27;100.00;65176.34;5075555;28;19917;-50
2023/07/10 03:12:10;;;;;;;;;;;;;;;-147.27;100.00;65176.34;5063396;28;19921;-55
2023/07/10 03:14:36;;;;;;;;;;;;;;;-147.27;100.00;65176.34;5057988;28;19917;-52
2023/07/10 03:17:03;;;;;;;;;;;;;;;-147.27;100.00;65176.34;5076258;28;19979;-55
2023/07/10 03:19:30;;;;;;;;;;;;;;;-147.27;100.00;65176.34;5086456;28;19916;-50
2023/07/10 03:21:56;;;;;;;;;;;;;;;-147.27;100.00;65176.34;5078323;28;19988;-52
2023/07/10 03:24:22;;;;;;;;;;;;;;;-147.27;100.00;65176.34;5075093;28;19917;-50
2023/07/10 03:26:48;;;;;;;;;;;;;;;-147.27;100.00;65176.34;5075103;28;19921;-50
2023/07/10 03:29:14;;;;;;;;;;;;;;;-147.27;100.00;65176.34;5076773;28;19928;-55
2023/07/10 03:31:40;;;;;;;;;;;;;;;-147.27;100.00;65176.34;5090579;28;19917;-56
2023/07/10 03:34:06;;;;;;;;;;;;;;;-147.27;100.00;65176.34;5075031;28;20074;-52
2023/07/10 03:36:32;;;;;;;;;;;;;;;-147.27;100.00;65176.34;5085783;28;19927;-53
2023/07/10 03:38:58;;;;;;;;;;;;;;;-147.27;100.00;65176.34;5080561;28;19951;-51
2023/07/10 03:41:24;;;;;;;;;;;;;;;-147.27;100.00;65176.34;5082119;28;19978;-54
2023/07/10 03:43:50;;;;;;;;;;;;;;;-147.27;100.00;65176.34;5084618;28;19917;-51
2023/07/10 03:46:16;;;;;;;;;;;;;;;-147.27;100.00;65176.34;5071141;28;19948;-52
2023/07/10 03:48:43;;;;;;;;;;;;;;;-147.27;100.00;65176.34;5074876;28;19921;-55
2023/07/10 03:51:09;;;;;;;;;;;;;;;-147.27;100.00;65176.34;5075122;28;19912;-53
2023/07/10 03:53:35;;;;;;;;;;;;;;;-147.27;100.00;65176.34;5074968;28;19984;-52
2023/07/10 03:56:00;;;;;;;;;;;;;;;-147.27;100.00;65176.34;5075144;28;19920;-53
2023/07/10 03:58:28;;;;;;;;;;;;;;;-147.27;100.00;65176.34;5066283;28;20251;-57
2023/07/10 04:00:55;;;;;;;;;;;;;;;-147.27;100.00;65176.34;5080147;28;19921;-56
2023/07/10 04:03:22;;;;;;;;;;;;;;;-147.27;100.00;65176.34;5081956;28;19928;-56
2023/07/10 04:05:52;;;;;;;;;;;;;;;-147.27;100.00;65176.34;5078792;28;20012;-56
2023/07/10 04:08:21;;;;;;;;;;;;;;;-147.27;100.00;65176.34;5086314;28;19901;-57
2023/07/10 04:10:48;;;;;;;;;;;;;;;-147.27;100.00;65176.34;5084410;28;19926;-56
2023/07/10 04:13:14;;;;;;;;;;;;;;;-147.27;100.00;65176.34;5086668;28;19924;-56
2023/07/10 04:15:39;;;;;;;;;;;;;;;-147.27;100.00;65176.34;5078614;28;19980;-55
2023/07/10 04:18:05;;;;;;;;;;;;;;;-147.27;100.00;65176.34;5083543;28;19924;-55
2023/07/10 04:20:30;;;;;;;;;;;;;;;-147.27;100.00;65176.34;5081107;28;19927;-55
2023/07/10 04:22:56;;;;;;;;;;;;;;;-147.27;100.00;65176.34;5078799;28;19936;-53
2023/07/10 04:25:21;;;;;;;;;;;;;;;-147.27;100.00;65176.34;5077250;28;19920;-57
2023/07/10 04:27:47;;;;;;;;;;;;;;;-147.27;100.00;65176.34;5078513;28;19920;-55
2023/07/10 04:30:12;;;;;;;;;;;;;;;-147.27;100.00;65176.34;5077303;28;19916;-55
2023/07/10 04:32:38;;;;;;;;;;;;;;;-147.27;100.00;65176.34;5078312;28;19996;-57
2023/07/10 04:35:04;;;;;;;;;;;;;;;-147.27;100.00;65176.34;5078217;28;19917;-52
2023/07/10 04:37:29;;;;;;;;;;;;;;;-147.27;100.00;65176.34;5078311;28;19916;-54
2023/07/10 04:39:54;;;;;;;;;;;;;;;-147.27;100.00;65176.34;5079100;28;19921;-55
2023/07/10 04:42:20;;;;;;;;;;;;;;;-147.27;100.00;65176.34;5079445;28;19917;-56
2023/07/10 04:44:45;;;;;;;;;;;;;;;-147.27;100.00;65176.34;5079314;28;20004;-55
2023/07/10 04:47:11;;;;;;;;;;;;;;;-147.27;100.00;65176.34;5069478;28;19917;-53
2023/07/10 04:49:37;;;;;;;;;;;;;;;-147.27;100.00;65176.34;5077992;28;19917;-54
2023/07/10 04:52:02;;;;;;;;;;;;;;;-147.27;100.00;65176.34;5060114;28;19928;-52
2023/07/10 04:54:27;;;;;;;;;;;;;;;-147.27;100.00;65176.34;5076688;28;19962;-55
2023/07/10 04:56:53;;;;;;;;;;;;;;;39.09;48.62;101957.88;5072160;28;19917;-51
2023/07/10 04:59:19;;;;;;;;;;;;;;;43.81;32.39;101976.25;5077586;28;19936;-53
2023/07/10 05:01:44;;;;;;;;;;;;;;;43.12;31.80;101975.19;5072908;28;19923;-53
2023/07/10 05:04:10;;;;;;;;;;;;;;;41.43;32.81;101963.00;5077528;28;19917;-53
2023/07/10 05:06:35;;;;;;;;;;;;;;;41.68;32.29;101970.91;5075379;28;19917;-50
2023/07/10 05:09:01;;;;;;;;;;;;;;;39.49;35.61;101953.09;5077512;28;19920;-50
2023/07/10 05:11:28;;;;;;;;;;;;;;;40.63;33.28;101960.28;5074590;28;19989;-53
2023/07/10 05:13:53;;;;;;;;;;;;;;;39.69;35.94;101951.09;5059866;28;19921;-54
2023/07/10 05:16:19;;;;;;;;;;;;;;;39.27;35.32;101959.06;5075922;28;19928;-51
2023/07/10 05:18:44;;;;;;;;;;;;;;;38.02;38.28;101950.13;5059688;28;19976;-53
2023/07/10 05:21:10;;;;;;;;;;;;;;;36.72;40.95;101956.34;5076502;28;19939;-49
2023/07/10 05:23:35;;;;;;;;;;;;;;;44.39;32.59;101965.00;5059799;28;19942;-53
2023/07/10 05:26:02;;;;;;;;;;;;;;;40.06;35.03;101961.78;5068667;28;19917;-53
2023/07/10 05:28:28;;;;;;;;;;;;;;;37.34;39.90;101957.38;5072662;28;19924;-52
2023/07/10 05:30:54;;;;;;;;;;;;;;;44.18;30.45;101981.94;5069993;28;19917;-50
2023/07/10 05:33:20;;;;;;;;;;;;;;;38.88;37.64;101961.78;5075541;28;19998;-52
2023/07/10 05:35:50;;;;;;;;;;;;;;;37.27;39.67;101956.00;5073473;28;19917;-51
2023/07/10 05:38:15;;;;;;;;;;;;;;;41.57;32.67;101973.56;5073259;28;19947;-51
2023/07/10 05:40:41;;;;;;;;;;;;;;;40.43;34.04;101977.19;5073332;28;19921;-52
2023/07/10 05:43:06;;;;;;;;;;;;;;;26.59;100.00;101956.28;5072599;28;19917;-56
2023/07/10 05:45:32;;;;;;;;;;;;;;;57.54;23.11;102013.38;5075720;28;19948;-50
2023/07/10 05:47:57;;;;;;;;;;;;;;;53.41;20.05;101991.59;5076919;28;19943;-48
2023/07/10 05:50:23;;;;;;;;;;;;;;;44.99;26.14;101972.94;5080300;28;19925;-51
2023/07/10 05:52:48;;;;;;;;;;;;;;;42.97;30.44;101960.28;5072330;28;19940;-50
2023/07/10 05:55:14;;;;;;;;;;;;;;;42.99;30.35;101955.06;5074694;28;19971;-49
2023/07/10 05:57:39;;;;;;;;;;;;;;;41.76;32.42;101954.13;5070139;28;19917;-54
2023/07/10 06:00:05;;;;;;;;;;;;;;;40.56;34.73;101947.78;5070334;28;19921;-52
2023/07/10 06:02:31;;;;;;;;;;;;;;;40.47;34.32;101961.25;5060739;28;19992;-51
2023/07/10 06:04:56;;;;;;;;;;;;;;;40.86;34.06;101954.66;5080206;28;19980;-54
2023/07/10 06:07:21;;;;;;;;;;;;;;;40.00;35.73;101954.88;5075844;28;19924;-53
2023/07/10 06:09:47;;;;;;;;;;;;;;;39.32;36.06;101957.94;5076716;28;19956;-53
2023/07/10 06:12:12;;;;;;;;;;;;;;;38.32;38.87;101946.91;5076486;28;19916;-50
2023/07/10 06:14:38;;;;;;;;;;;;;;;38.35;39.20;101954.53;5080293;28;19921;-53
2023/07/10 06:17:04;;;;;;;;;;;;;;;38.59;38.60;101952.75;5076693;28;19921;-54
2023/07/10 06:19:29;;;;;;;;;;;;;;;39.68;36.30;101963.47;5072422;28;19925;-51
2023/07/10 06:22:05;;;;;;;;;;;;;;;40.19;36.26;101962.38;5066248;28;19917;-52
2023/07/10 06:24:31;;;;;;;;;;;;;;;40.38;35.54;101963.53;5074335;28;19917;-50
2023/07/10 06:26:56;;;;;;;;;;;;;;;37.71;38.91;101951.66;5075481;28;19931;-50
2023/07/10 06:29:22;;;;;;;;;;;;;;;38.34;39.17;101946.50;5075319;28;19916;-53
2023/07/10 06:31:47;;;;;;;;;;;;;;;38.89;37.68;101949.41;5078665;28;19921;-51
2023/07/10 06:34:12;;;;;;;;;;;;;;;38.29;38.51;101955.97;5079934;28;19920;-49
2023/07/10 06:36:38;;;;;;;;;;;;;;;38.47;38.57;101952.84;5078984;28;19916;-57
2023/07/10 06:39:04;;;;;;;;;;;;;;;40.00;35.94;101961.25;5074254;28;19917;-53
2023/07/10 06:41:29;;;;;;;;;;;;;;;37.72;38.85;101956.09;5075040;28;19944;-50
2023/07/10 06:43:55;;;;;;;;;;;;;;;40.33;36.05;101977.84;5070801;28;19916;-48
2023/07/10 06:46:21;;;;;;;;;;;;;;;39.47;35.55;101978.66;5073570;28;19980;-50
2023/07/10 06:48:47;;;;;;;;;;;;;;;39.71;34.36;101985.13;5070532;28;19927;-50
2023/07/10 06:51:13;;;;;;;;;;;;;;;40.17;33.47;101989.16;5075367;28;19952;-50
2023/07/10 06:53:38;;;;;;;;;;;;;;;39.47;35.90;101989.03;5075233;28;19924;-52
2023/07/10 06:56:05;;;;;;;;;;;;;;;39.09;36.75;101988.63;5075178;28;19925;-52
2023/07/10 06:58:31;;;;;;;;;;;;;;;40.75;33.97;101998.53;5068283;28;19921;-54
2023/07/10 07:00:57;;;;;;;;;;;;;;;38.04;37.81;101992.44;5071963;28;19947;-53
2023/07/10 07:03:23;;;;;;;;;;;;;;;39.77;36.58;101992.03;5067059;28;19917;-53
2023/07/10 07:05:48;;;;;;;;;;;;;;;39.06;37.21;101992.94;5076900;28;19988;-53
2023/07/10 07:08:14;;;;;;;;;;;;;;;39.67;36.55;101987.84;5074631;28;19992;-50
2023/07/10 07:10:43;;;;;;;;;;;;;;;41.64;33.49;102005.75;5081490;28;19916;-56
2023/07/10 07:13:09;;;;;;;;;;;;;;;41.64;33.01;102002.94;5074908;28;19924;-50
2023/07/10 07:15:35;;;;;;;;;;;;;;;40.24;34.17;102001.28;5087839;28;19921;-53
2023/07/10 07:18:01;;;;;;;;;;;;;;;38.67;37.08;101993.66;5074746;28;19913;-53
2023/07/10 07:20:26;;;;;;;;;;;;;;;40.07;35.37;101999.78;5074259;28;19924;-50
2023/07/10 07:22:52;;;;;;;;;;;;;;;39.52;36.16;101997.13;5075148;28;19922;-53
2023/07/10 07:25:18;;;;;;;;;;;;;;;39.47;35.60;102006.66;5083857;28;19920;-52
2023/07/10 07:27:44;;;;;;;;;;;;;;;37.21;40.47;102004.00;5074791;28;19976;-51
2023/07/10 07:30:09;;;;;;;;;;;;;;;38.83;36.82;101999.19;5076614;28;19917;-53
2023/07/10 07:32:35;;;;;;;;;;;;;;;43.26;30.97;102025.91;5074989;28;19984;-52
2023/07/10 07:35:01;;;;;;;;;;;;;;;39.89;35.61;102009.84;5079555;28;19917;-51
2023/07/10 07:37:26;;;;;;;;;;;;;;;44.95;29.12;102029.38;5074456;28;20523;-53
2023/07/10 07:39:54;;;;;;;;;;;;;;;44.22;29.40;102033.44;5074398;28;20263;-55
2023/07/10 07:42:19;;;;;;;;;;;;;;;54.15;21.53;102053.84;5074485;28;19917;-56
2023/07/10 07:44:45;;;;;;;;;;;;;;;38.52;35.18;102008.44;5074437;28;19925;-55
2023/07/10 07:47:10;;;;;;;;;;;;;;;38.69;36.72;102007.25;5081416;28;19924;-50
2023/07/10 07:49:36;;;;;;;;;;;;;;;38.00;37.68;102006.31;5077355;28;19956;-52
2023/07/10 07:52:01;;;;;;;;;;;;;;;40.42;35.40;102010.03;5083552;28;19919;-55
2023/07/10 07:54:27;;;;;;;;;;;;;;;38.96;34.95;102010.31;5074633;28;20031;-54
2023/07/10 07:56:52;;;;;;;;;;;;;;;37.43;37.84;101997.91;5078344;28;20022;-54
2023/07/10 07:59:18;;;;;;;;;;;;;;;35.40;41.62;101979.94;5077410;28;19932;-54
2023/07/10 08:01:44;;;;;;;;;;;;;;;34.45;43.19;101983.72;5068139;28;19943;-52
2023/07/10 08:04:10;;;;;;;;;;;;;;;37.18;39.81;101977.66;5068691;28;19917;-53
2023/07/10 08:06:35;;;;;;;;;;;;;;;38.50;37.05;101980.88;5074893;28;19923;-54
2023/07/10 08:09:02;;;;;;;;;;;;;;;40.85;33.01;101995.09;5070608;28;20393;-54
2023/07/10 08:11:27;;;;;;;;;;;;;;;42.45;30.63;102005.34;5074315;28;20234;-56
2023/07/10 08:13:53;;;;;;;;;;;;;;;39.20;35.02;101992.44;5074253;28;19916;-54
2023/07/10 08:16:19;;;;;;;;;;;;;;;38.37;36.31;101991.31;5082069;28;19955;-55
2023/07/10 08:18:45;;;;;;;;;;;;;;;39.47;34.60;101989.03;5070904;28;19947;-51
2023/07/10 08:21:12;;;;;;;;;;;;;;;38.47;35.93;102001.16;5054528;28;19957;-54
2023/07/10 08:23:37;;;;;;;;;;;;;;;39.46;34.54;101999.44;5069457;28;19933;-54
2023/07/10 08:26:04;;;;;;;;;;;;;;;39.30;33.77;101993.84;5070254;28;19973;-52
2023/07/10 08:28:29;;;;;;;;;;;;;;;39.52;33.93;101991.53;5079830;28;19920;-51
2023/07/10 08:30:55;;;;;;;;;;;;;;;38.11;36.28;101995.44;5072197;28;19942;-50
2023/07/10 08:33:20;;;;;;;;;;;;;;;39.77;34.04;101997.63;5078025;28;19925;-51
2023/07/10 08:35:56;;;;;;;;;;;;;;;38.43;35.27;101998.22;5075766;28;19917;-52
2023/07/10 08:38:21;;;;;;;;;;;;;;;37.12;37.41;101995.78;5074197;28;19948;-50
2023/07/10 08:40:49;;;;;;;;;;;;;;;37.95;35.28;101986.19;5061369;28;19946;-51
2023/07/10 08:43:32;;;;;;;;;;;;;;;38.49;33.86;101993.22;5075977;28;19993;-49
2023/07/10 08:46:06;;;;;;;;;;;;;;;39.14;32.36;102000.34;5073934;28;20168;-52
2023/07/10 08:48:34;;;;;;;;;;;;;;;38.37;34.19;101996.06;5075848;28;19916;-56
2023/07/10 08:51:08;;;;;;;;;;;;;;;38.05;34.61;101990.47;5082717;28;19944;-52
2023/07/10 08:53:36;;;;;;;;;;;;;;;38.26;34.25;101993.81;5077659;28;19955;-53
2023/07/10 08:56:08;;;;;;;;;;;;;;;37.35;35.87;101998.03;5077294;28;19912;-54
2023/07/10 08:58:36;;;;;;;;;;;;;;;39.20;33.65;102003.63;5080034;28;19917;-54
2023/07/10 09:01:04;;;;;;;;;;;;;;;37.11;36.06;101994.16;5094556;28;19931;-56
2023/07/10 09:03:32;;;;;;;;;;;;;;;38.82;34.73;101988.41;5076907;28;19992;-53
2023/07/10 09:05:58;;;;;;;;;;;;;;;38.00;35.03;101995.16;5082539;28;19971;-50
2023/07/10 09:08:27;;;;;;;;;;;;;;;39.17;34.89;101995.97;5077229;28;19988;-51
2023/07/10 09:10:56;;;;;;;;;;;;;;;39.68;32.63;102003.44;5077524;28;19939;-53
2023/07/10 09:13:38;;;;;;;;;;;;;;;39.48;32.46;102013.03;5081115;28;19955;-49
2023/07/10 09:16:10;;;;;;;;;;;;;;;37.17;35.94;102004.72;5079826;28;19924;-52
2023/07/10 09:18:40;;;;;;;;;;;;;;;38.03;35.97;102001.97;5076682;28;19916;-52
2023/07/10 09:21:15;;;;;;;;;;;;;;;39.35;34.03;101995.56;5071481;28;19985;-54
2023/07/10 09:23:42;;;;;;;;;;;;;;;39.58;33.95;102012.47;5062461;28;19943;-52
2023/07/10 09:26:13;;;;;;;;;;;;;;;41.73;30.07;102031.50;5066738;28;19923;-53
2023/07/10 09:28:39;;;;;;;;;;;;;;;38.80;32.63;102002.72;5076726;28;19924;-57
2023/07/10 09:31:10;;;;;;;;;;;;;;;37.38;35.73;102008.50;5076849;28;19976;-52
2023/07/10 09:33:37;;;;;;;;;;;;;;;36.08;37.39;102002.28;5076127;28;19921;-56
2023/07/10 09:36:11;;;;;;;;;;;;;;;37.92;35.55;101998.88;5078122;28;19928;-51
2023/07/10 09:38:36;;;;;;;;;;;;;;;39.22;33.14;102015.28;5075766;28;19983;-55
2023/07/10 09:41:09;;;;;;;;;;;;;;;40.39;31.43;102016.41;5076800;28;19944;-54
2023/07/10 09:43:36;;;;;;;;;;;;;;;39.15;33.25;102012.31;5071181;28;19923;-53
2023/07/10 09:46:01;;;;;;;;;;;;;;;44.48;26.84;102034.25;5076241;28;19924;-57
2023/07/10 09:48:30;;;;;;;;;;;;;;;50.71;22.69;102043.88;5085739;28;19920;-53
2023/07/10 09:50:56;;;;;;;;;;;;;;;42.63;28.16;102000.63;5082109;28;19921;-53
2023/07/10 09:53:23;;;;;;;;;;;;;;;42.68;27.73;102019.97;5088623;28;19927;-54
2023/07/10 09:55:49;;;;;;;;;;;;;;;44.11;27.26;102013.69;5078747;28;19927;-53
2023/07/10 09:58:14;;;;;;;;;;;;;;;45.08;25.67;102020.47;5075255;28;19916;-56
2023/07/10 10:00:45;;;;;;;;;;;;;;;41.08;28.52;102016.66;5069987;28;19921;-57
2023/07/10 10:03:15;;;;;;;;;;;;;;;40.85;29.57;102012.72;5085087;28;19924;-49
2023/07/10 10:05:41;;;;;;;;;;;;;;;40.81;29.81;102013.84;5076043;28;19917;-55
2023/07/10 10:08:36;;;;;;;;;;;;;;;40.10;30.25;102003.84;5076158;28;19912;-54
2023/07/10 10:11:06;;;;;;;;;;;;;;;40.50;29.99;102004.53;5063192;28;19917;-57
2023/07/10 10:13:43;;;;;;;;;;;;;;;40.51;28.83;102004.16;5069146;28;19917;-57
2023/07/10 10:16:12;;;;;;;;;;;;;;;41.22;28.42;102011.22;5075040;28;19917;-52
2023/07/10 10:18:37;;;;;;;;;;;;;;;40.09;29.72;102014.22;5071635;28;19943;-56
2023/07/10 10:21:04;;;;;;;;;;;;;;;39.87;29.77;102007.44;5075889;28;19921;-56
2023/07/10 10:23:35;;;;;;;;;;;;;;;41.98;27.97;102025.34;5073221;28;19940;-57
2023/07/10 10:26:20;;;;;;;;;;;;;;;45.13;25.29;102027.72;5076181;28;19925;-55
2023/07/10 10:28:57;;;;;;;;;;;;;;;44.46;26.17;102020.56;5054220;28;19913;-55
2023/07/10 10:31:26;;;;;;;;;;;;;;;48.81;21.42;102038.16;5077402;28;20208;-54
2023/07/10 10:34:00;;;;;;;;;;;;;;;51.46;20.21;102043.72;5083015;28;19923;-54
2023/07/10 10:36:36;;;;;;;;;;;;;;;49.38;21.65;102046.72;5073548;28;19916;-56
2023/07/10 10:39:09;;;;;;;;;;;;;;;46.63;22.90;102029.16;5080701;28;19917;-54
2023/07/10 10:41:44;;;;;;;;;;;;;;;38.88;31.29;102000.91;5076041;28;19917;-55
2023/07/10 10:44:10;;;;;;;;;;;;;;;37.94;32.07;101990.94;5081830;28;19959;-53
2023/07/10 10:46:54;;;;;;;;;;;;;;;37.01;34.41;101984.28;5074764;28;19947;-53
2023/07/10 10:49:28;;;;;;;;;;;;;;;33.60;40.29;101982.41;5078228;28;19927;-54
2023/07/10 10:52:08;;;;;;;;;;;;;;;36.20;41.43;102001.50;5067584;28;19923;-52
2023/07/10 10:54:38;;;;;;;;;;;;;;;32.35;48.06;101995.34;5068049;28;19939;-53
2023/07/10 10:57:21;;;;;;;;;;;;;;;43.63;27.46;102020.47;5074227;28;19973;-53
2023/07/10 11:00:01;;;;;;;;;;;;;;;47.51;23.31;102044.69;5074128;28;19927;-54
2023/07/10 11:02:33;;;;;;;;;;;;;;;47.53;22.17;102058.44;5074152;28;19928;-54
2023/07/10 11:05:01;;;;;;;;;;;;;;;50.33;20.83;102063.16;5064264;28;19952;-54
2023/07/10 11:07:27;;;;;;;;;;;;;;;51.04;21.14;102058.00;5081968;28;19921;-54
2023/07/10 11:09:55;;;;;;;;;;;;;;;53.86;18.11;102060.78;5074601;28;19917;-52
2023/07/10 11:12:23;;;;;;;;;;;;;;;48.04;20.79;102033.03;5074154;28;19932;-49
2023/07/10 11:14:50;;;;;;;;;;;;;;;50.21;19.75;102041.91;5074794;28;19921;-52
2023/07/10 11:17:16;;;;;;;;;;;;;;;47.90;21.54;102031.19;5074061;28;19988;-52
2023/07/10 11:19:43;;;;;;;;;;;;;;;49.91;20.22;102043.09;5059668;28;19928;-51
2023/07/10 11:22:10;;;;;;;;;;;;;;;47.43;21.98;102026.19;5071996;28;19927;-56
2023/07/10 11:24:36;;;;;;;;;;;;;;;54.09;17.76;102050.81;5084452;28;19972;-52
2023/07/10 11:27:25;;;;;;;;;;;;;;;53.25;18.10;102036.25;5075531;28;19917;-56
2023/07/10 11:29:55;;;;;;;;;;;;;;;50.98;18.55;102037.00;5077892;28;19924;-55
2023/07/10 11:32:23;;;;;;;;;;;;;;;48.52;20.42;102024.50;5069005;28;20406;-55
2023/07/10 11:34:49;;;;;;;;;;;;;;;49.69;19.89;102025.72;5074613;28;19917;-55
2023/07/10 11:37:34;;;;;;;;;;;;;;;49.98;19.76;102019.38;5074442;28;19920;-53
2023/07/10 11:40:19;;;;;;;;;;;;;;;51.32;18.96;102033.56;5074412;28;19984;-51
2023/07/10 11:42:45;;;;;;;;;;;;;;;51.57;18.30;102023.41;5077732;28;19920;-51
2023/07/10 11:45:12;;;;;;;;;;;;;;;49.61;19.10;102011.69;5074107;28;20003;-54
2023/07/10 11:47:37;;;;;;;;;;;;;;;48.57;19.99;102011.88;5073992;28;19984;-56
2023/07/10 11:50:22;;;;;;;;;;;;;;;51.40;18.70;102022.72;5074652;28;19924;-54
2023/07/10 11:53:06;;;;;;;;;;;;;;;49.48;18.92;102020.09;5075863;28;19920;-53
2023/07/10 11:55:40;;;;;;;;;;;;;;;49.55;19.21;102019.16;5074563;28;19939;-54
2023/07/10 11:58:26;;;;;;;;;;;;;;;56.16;15.83;102035.34;5073840;28;19920;-55
2023/07/10 12:00:56;;;;;;;;;;;;;;;49.17;19.07;102020.41;5074074;28;19949;-53
2023/07/10 12:03:21;;;;;;;;;;;;;;;47.78;19.79;102014.78;5074100;28;19932;-55
2023/07/10 12:05:48;;;;;;;;;;;;;;;46.89;19.99;102004.22;5074041;28;20027;-55
2023/07/10 12:08:14;;;;;;;;;;;;;;;47.91;19.44;102017.81;5074212;28;19916;-54
2023/07/10 12:10:41;;;;;;;;;;;;;;;50.45;18.01;102026.69;5074475;28;19916;-55
2023/07/10 12:13:12;;;;;;;;;;;;;;;53.08;16.74;102024.28;5078835;28;20007;-51
2023/07/10 12:15:39;;;;;;;;;;;;;;;50.63;17.54;102009.94;5076834;28;19988;-54
2023/07/10 12:18:07;;;;;;;;;;;;;;;50.26;17.61;102002.81;5083407;28;19917;-55
2023/07/10 12:20:32;;;;;;;;;;;;;;;50.96;16.92;102011.88;5076689;28;19925;-54
2023/07/10 12:23:06;;;;;;;;;;;;;;;48.36;18.90;102003.28;5078437;28;19948;-55
2023/07/10 12:25:31;;;;;;;;;;;;;;;49.34;18.49;102001.34;5077868;28;19948;-53
2023/07/10 12:28:01;;;;;;;;;;;;;;;48.52;18.83;101994.09;5086168;28;19995;-54
2023/07/10 12:30:26;;;;;;;;;;;;;;;48.54;18.66;102005.00;5078122;28;19917;-55